createdAt,value
2022-11-05T00:00:06.668Z,10.00
2022-11-05T00:03:12.917Z,21.77
2022-11-05T00:06:20.341Z,11.32
2022-11-05T00:09:28.313Z,10.18
2022-11-05T00:12:34.084Z,15.23
2022-11-05T00:15:40.204Z,11.57
2022-11-05T00:18:27.505Z,12.02
2022-11-05T00:21:33.254Z,8.65
2022-11-05T00:24:39.384Z,14.05
2022-11-05T00:27:26.738Z,19.65
2022-11-05T00:30:18.498Z,8.15
2022-11-05T00:33:05.779Z,17.27
2022-11-05T00:35:53.126Z,10.70
2022-11-05T00:38:40.484Z,12.30
2022-11-05T00:41:27.733Z,12.32
2022-11-05T00:44:33.683Z,5.60
2022-11-05T00:47:39.744Z,5.72
2022-11-05T00:50:27.499Z,6.32
2022-11-05T00:53:14.822Z,6.90
2022-11-05T00:56:02.660Z,6.15
2022-11-05T00:58:49.970Z,6.03
2022-11-05T01:01:37.347Z,6.47
2022-11-05T01:04:24.823Z,6.32
2022-11-05T01:07:12.075Z,7.43
2022-11-05T01:09:59.381Z,6.03
2022-11-05T01:12:46.814Z,6.40
2022-11-05T01:15:35.788Z,6.57
2022-11-05T01:18:24.295Z,5.75
2022-11-05T01:21:14.178Z,6.22
2022-11-05T01:24:02.375Z,7.03
2022-11-05T01:26:49.703Z,6.10
2022-11-05T01:29:37.304Z,6.68
2022-11-05T01:32:24.603Z,7.10
2022-11-05T01:35:14.615Z,6.70
2022-11-05T01:38:01.941Z,6.85
2022-11-05T01:40:49.449Z,6.72
2022-11-05T01:43:50.241Z,6.22
2022-11-05T01:46:45.349Z,6.47
2022-11-05T01:49:34.576Z,5.45
2022-11-05T01:52:23.731Z,6.30
2022-11-05T01:55:13.489Z,5.18
2022-11-05T01:58:02.264Z,6.03
2022-11-05T02:00:49.707Z,5.70
2022-11-05T02:03:37.689Z,5.10
2022-11-05T02:06:25.962Z,5.30
2022-11-05T02:09:21.578Z,5.22
2022-11-05T02:12:09.859Z,5.55
2022-11-05T02:14:58.002Z,6.25
2022-11-05T02:17:48.284Z,5.15
2022-11-05T02:20:41.801Z,6.10
2022-11-05T02:23:41.347Z,5.80
2022-11-05T02:27:01.772Z,6.55
2022-11-05T02:30:28.048Z,6.78
2022-11-05T02:33:47.317Z,6.55
2022-11-05T02:36:50.238Z,6.60
2022-11-05T02:39:56.208Z,6.00
2022-11-05T02:43:15.179Z,6.03
2022-11-05T02:46:14.829Z,6.43
2022-11-05T02:49:29.947Z,6.88
2022-11-05T02:52:43.405Z,6.60
2022-11-05T02:55:40.097Z,6.65
2022-11-05T02:58:28.917Z,6.28
2022-11-05T03:01:16.516Z,6.53
2022-11-05T03:04:08.202Z,6.38
2022-11-05T03:07:20.541Z,8.45
2022-11-05T03:13:21.417Z,6.57
2022-11-05T03:16:47.707Z,7.95
2022-11-05T03:19:46.533Z,6.93
2022-11-05T03:22:41.446Z,7.68
2022-11-05T03:25:31.155Z,7.38
2022-11-05T03:28:22.231Z,6.75
2022-11-05T03:31:13.322Z,6.93
2022-11-05T03:34:01.945Z,6.30
2022-11-05T03:36:53.447Z,7.25
2022-11-05T03:39:47.555Z,6.30
2022-11-05T03:42:38.692Z,6.78
2022-11-05T03:45:30.768Z,7.50
2022-11-05T03:51:43.743Z,6.57
2022-11-05T03:54:31.560Z,6.70
2022-11-05T03:57:24.054Z,6.50
2022-11-05T04:00:11.918Z,8.50
2022-11-05T04:02:59.195Z,5.57
2022-11-05T04:06:07.072Z,6.93
2022-11-05T04:09:13.135Z,7.43
2022-11-05T04:12:19.067Z,7.03
2022-11-05T04:15:06.947Z,7.43
2022-11-05T04:17:55.517Z,8.07
2022-11-05T04:21:01.432Z,6.93
2022-11-05T04:24:07.165Z,6.40
2022-11-05T04:26:54.778Z,7.00
2022-11-05T04:30:00.773Z,6.20
2022-11-05T04:33:05.350Z,7.30
2022-11-05T04:35:52.989Z,9.70
2022-11-05T04:38:40.263Z,9.52
2022-11-05T04:41:27.635Z,8.68
2022-11-05T04:44:16.164Z,8.45
2022-11-05T04:47:03.462Z,8.75
2022-11-05T04:49:50.847Z,10.48
2022-11-05T04:52:38.144Z,9.82
2022-11-05T04:55:26.036Z,8.93
2022-11-05T04:58:13.308Z,8.45
2022-11-05T05:01:02.901Z,6.72
2022-11-05T05:03:51.623Z,6.70
2022-11-05T05:06:38.914Z,6.88
2022-11-05T05:09:26.207Z,6.30
2022-11-05T05:12:13.502Z,7.53
2022-11-05T05:15:00.809Z,6.93
2022-11-05T05:17:52.085Z,6.95
2022-11-05T05:20:57.692Z,8.40
2022-11-05T05:23:46.918Z,8.10
2022-11-05T05:26:36.013Z,8.23
2022-11-05T05:29:23.588Z,7.13
2022-11-05T05:32:10.937Z,7.53
2022-11-05T05:34:58.324Z,7.55
2022-11-05T05:37:45.652Z,7.32
2022-11-05T05:40:32.968Z,6.75
2022-11-05T05:43:20.226Z,6.97
2022-11-05T05:46:12.151Z,6.90
2022-11-05T05:48:59.674Z,7.53
2022-11-05T05:51:48.901Z,7.45
2022-11-05T05:54:42.292Z,6.80
2022-11-05T05:57:31.416Z,6.93
2022-11-05T06:00:18.838Z,6.63
2022-11-05T06:03:06.623Z,6.88
2022-11-05T06:05:54.051Z,7.28
2022-11-05T06:08:42.559Z,6.65
2022-11-05T06:11:29.890Z,7.63
2022-11-05T06:14:17.334Z,7.22
2022-11-05T06:17:06.403Z,7.72
2022-11-05T06:19:53.688Z,7.00
2022-11-05T06:22:41.048Z,7.60
2022-11-05T06:25:28.377Z,7.82
2022-11-05T06:28:15.699Z,7.38
2022-11-05T06:31:04.120Z,8.65
2022-11-05T06:33:51.627Z,7.78
2022-11-05T06:36:40.095Z,7.43
2022-11-05T06:39:27.722Z,7.93
2022-11-05T06:42:19.204Z,7.97
2022-11-05T06:45:07.543Z,8.48
2022-11-05T06:47:57.032Z,8.68
2022-11-05T06:50:45.216Z,11.23
2022-11-05T06:53:32.654Z,7.82
2022-11-05T06:56:19.918Z,7.10
2022-11-05T06:59:08.605Z,8.30
2022-11-05T07:01:56.310Z,16.85
2022-11-05T07:04:43.800Z,9.55
2022-11-05T07:07:31.049Z,22.90
2022-11-05T07:10:19.414Z,13.75
2022-11-05T07:13:08.437Z,25.27
2022-11-05T07:15:56.638Z,14.13
2022-11-05T07:18:43.908Z,8.90
2022-11-05T07:21:31.185Z,12.38
2022-11-05T07:24:18.495Z,16.30
2022-11-05T07:27:06.176Z,16.58
2022-11-05T07:29:53.419Z,13.98
2022-11-05T07:32:40.863Z,9.43
2022-11-05T07:35:28.600Z,6.93
2022-11-05T07:38:16.971Z,10.90
2022-11-05T07:41:04.330Z,10.98
2022-11-05T07:43:51.605Z,9.95
2022-11-05T07:46:39.149Z,7.78
2022-11-05T07:49:26.466Z,9.93
2022-11-05T07:52:13.761Z,8.15
2022-11-05T07:55:01.167Z,8.30
2022-11-05T07:57:50.970Z,9.13
2022-11-05T08:00:38.490Z,8.07
2022-11-05T08:03:26.154Z,8.27
2022-11-05T08:06:13.622Z,6.65
2022-11-05T08:09:00.950Z,6.35
2022-11-05T08:11:51.139Z,7.18
2022-11-05T08:14:41.472Z,7.50
2022-11-05T08:17:28.862Z,12.48
2022-11-05T08:20:17.115Z,16.77
2022-11-05T08:23:04.995Z,9.80
2022-11-05T08:25:52.411Z,13.18
2022-11-05T08:28:39.878Z,9.57
2022-11-05T08:31:27.928Z,8.23
2022-11-05T08:34:15.219Z,9.10
2022-11-05T08:37:03.050Z,7.97
2022-11-05T08:39:50.505Z,12.15
2022-11-05T08:42:37.831Z,9.65
2022-11-05T08:45:26.242Z,5.57
2022-11-05T08:48:16.023Z,4.82
2022-11-05T08:51:03.284Z,6.47
2022-11-05T08:53:50.702Z,7.70
2022-11-05T08:56:38.085Z,8.55
2022-11-05T08:59:25.600Z,13.35
2022-11-05T09:02:13.117Z,10.63
2022-11-05T09:05:00.596Z,9.90
2022-11-05T09:07:48.206Z,9.32
2022-11-05T09:10:36.241Z,8.95
2022-11-05T09:13:23.820Z,7.43
2022-11-05T09:16:23.477Z,8.85
2022-11-05T09:19:10.853Z,7.57
2022-11-05T09:21:59.474Z,6.22
2022-11-05T09:24:46.845Z,7.55
2022-11-05T09:27:34.152Z,7.20
2022-11-05T09:30:21.492Z,7.78
2022-11-05T09:33:09.494Z,5.70
2022-11-05T09:36:00.001Z,5.72
2022-11-05T09:38:47.608Z,4.45
2022-11-05T09:41:39.903Z,3.30
2022-11-05T09:44:52.681Z,3.17
2022-11-05T09:47:44.316Z,3.25
2022-11-05T09:50:40.518Z,3.53
2022-11-05T09:53:28.310Z,3.45
2022-11-05T09:56:22.233Z,3.08
2022-11-05T09:59:23.972Z,4.32
2022-11-05T10:02:20.834Z,6.00
2022-11-05T10:05:11.414Z,4.45
2022-11-05T10:08:03.569Z,2.70
2022-11-05T10:10:55.546Z,7.30
2022-11-05T10:13:47.482Z,5.22
2022-11-05T10:19:38.987Z,8.17
2022-11-05T10:22:26.548Z,3.78
2022-11-05T10:25:19.575Z,4.03
2022-11-05T10:28:09.743Z,5.03
2022-11-05T10:31:06.609Z,4.35
2022-11-05T10:34:00.625Z,2.63
2022-11-05T10:36:48.474Z,9.30
2022-11-05T10:39:36.354Z,5.20
2022-11-05T10:42:47.036Z,10.18
2022-11-05T10:45:46.809Z,12.32
2022-11-05T10:48:43.637Z,8.20
2022-11-05T10:51:32.534Z,3.88
2022-11-05T10:54:23.277Z,6.35
2022-11-05T10:57:39.545Z,4.55
2022-11-05T11:00:28.501Z,7.63
2022-11-05T11:03:48.066Z,8.00
2022-11-05T11:06:39.512Z,8.50
2022-11-05T11:09:28.835Z,7.35
2022-11-05T11:12:27.531Z,4.47
2022-11-05T11:15:27.433Z,7.35
2022-11-05T11:18:35.990Z,4.40
2022-11-05T11:21:28.715Z,3.78
2022-11-05T11:24:23.245Z,4.05
2022-11-05T11:27:18.011Z,3.90
2022-11-05T11:30:06.714Z,2.40
2022-11-05T11:33:00.060Z,3.60
2022-11-05T11:35:47.443Z,2.08
2022-11-05T11:38:36.459Z,3.38
2022-11-05T11:41:44.783Z,2.83
2022-11-05T11:44:39.593Z,3.17
2022-11-05T11:47:29.049Z,4.32
2022-11-05T11:50:31.414Z,2.65
2022-11-05T11:53:21.458Z,4.35
2022-11-05T11:56:20.347Z,3.05
2022-11-05T11:59:40.604Z,3.67
2022-11-05T12:03:07.748Z,6.45
2022-11-05T12:06:07.939Z,6.18
2022-11-05T12:09:14.168Z,7.82
2022-11-05T12:12:15.208Z,6.40
2022-11-05T12:15:24.456Z,7.70
2022-11-05T12:19:00.667Z,3.05
2022-11-05T12:21:52.931Z,2.60
2022-11-05T12:24:52.720Z,3.65
2022-11-05T12:27:40.044Z,4.68
2022-11-05T12:30:39.637Z,4.22
2022-11-05T12:33:47.195Z,5.72
2022-11-05T12:36:53.219Z,4.68
2022-11-05T12:40:27.063Z,8.02
2022-11-05T12:43:56.916Z,10.13
2022-11-05T12:47:17.744Z,5.45
2022-11-05T12:50:28.484Z,5.57
2022-11-05T12:53:43.464Z,7.30
2022-11-05T12:56:37.062Z,4.05
2022-11-05T13:00:06.586Z,2.88
2022-11-05T13:03:09.253Z,4.05
2022-11-05T13:06:00.191Z,3.65
2022-11-05T13:09:04.454Z,1.70
2022-11-05T13:11:56.542Z,2.55
2022-11-05T13:15:12.892Z,3.83
2022-11-05T13:18:05.425Z,1.80
2022-11-05T13:20:54.483Z,4.30
2022-11-05T13:23:49.213Z,2.60
2022-11-05T13:26:45.993Z,2.95
2022-11-05T13:29:41.357Z,2.75
2022-11-05T13:32:35.982Z,3.55
2022-11-05T13:35:31.380Z,3.33
2022-11-05T13:38:44.499Z,3.40
2022-11-05T13:41:57.720Z,2.80
2022-11-05T13:44:53.724Z,2.88
2022-11-05T13:47:56.012Z,3.47
2022-11-05T13:51:11.070Z,3.72
2022-11-05T13:54:21.619Z,3.95
2022-11-05T13:57:34.599Z,4.30
2022-11-05T14:00:27.409Z,2.10
2022-11-05T14:03:19.247Z,2.65
2022-11-05T14:09:02.616Z,2.65
2022-11-05T14:11:56.532Z,2.75
2022-11-05T14:14:53.275Z,3.58
2022-11-05T14:18:35.391Z,3.80
2022-11-05T14:21:32.350Z,2.80
2022-11-05T14:24:22.640Z,2.85
2022-11-05T14:27:29.904Z,3.83
2022-11-05T14:30:45.977Z,5.40
2022-11-05T14:33:38.922Z,5.72
2022-11-05T14:36:26.303Z,3.67
2022-11-05T14:39:13.929Z,5.70
2022-11-05T14:42:27.591Z,4.38
2022-11-05T14:45:17.565Z,4.35
2022-11-05T14:48:23.530Z,4.22
2022-11-05T14:51:32.188Z,4.90
2022-11-05T14:54:21.801Z,6.05
2022-11-05T14:57:14.942Z,4.38
2022-11-05T15:00:03.254Z,3.30
2022-11-05T15:03:36.275Z,3.97
2022-11-05T15:06:28.155Z,3.67
2022-11-05T15:09:22.957Z,4.00
2022-11-05T15:12:31.749Z,3.28
2022-11-05T15:15:32.167Z,3.78
2022-11-05T15:18:36.733Z,3.30
2022-11-05T15:21:25.496Z,3.58
2022-11-05T15:24:15.887Z,3.20
2022-11-05T15:27:09.382Z,3.85
2022-11-05T15:29:57.254Z,4.30
2022-11-05T15:32:44.688Z,3.33
2022-11-05T15:35:39.351Z,3.80
2022-11-05T15:38:28.331Z,7.30
2022-11-05T15:41:20.820Z,6.07
2022-11-05T15:44:24.069Z,5.97
2022-11-05T15:47:16.604Z,5.32
2022-11-05T15:50:14.787Z,7.13
2022-11-05T15:53:41.641Z,6.78
2022-11-05T15:56:31.702Z,9.98
2022-11-05T15:59:24.435Z,10.00
2022-11-05T16:02:33.942Z,8.32
2022-11-05T16:05:22.010Z,14.20
2022-11-05T16:08:17.662Z,14.70
2022-11-05T16:11:05.330Z,12.07
2022-11-05T16:13:53.871Z,9.05
2022-11-05T16:16:41.319Z,10.80
2022-11-05T16:19:40.109Z,17.77
2022-11-05T16:22:45.194Z,19.67
2022-11-05T16:25:38.495Z,23.38
2022-11-05T16:28:28.694Z,18.63
2022-11-05T16:31:21.974Z,7.82
2022-11-05T16:34:25.874Z,8.35
2022-11-05T16:37:16.355Z,9.50
2022-11-05T16:40:13.389Z,11.00
2022-11-05T16:43:15.729Z,9.05
2022-11-05T16:46:03.104Z,12.07
2022-11-05T16:48:50.379Z,10.60
2022-11-05T16:51:38.451Z,12.65
2022-11-05T16:54:25.777Z,16.17
2022-11-05T16:57:25.665Z,13.45
2022-11-05T17:00:18.623Z,11.38
2022-11-05T17:03:05.997Z,8.00
2022-11-05T17:05:53.642Z,7.32
2022-11-05T17:08:41.433Z,7.38
2022-11-05T17:11:28.799Z,7.35
2022-11-05T17:14:16.165Z,6.70
2022-11-05T17:17:04.086Z,6.80
2022-11-05T17:19:51.431Z,7.68
2022-11-05T17:22:38.724Z,5.30
2022-11-05T17:25:26.741Z,8.00
2022-11-05T17:28:16.864Z,8.52
2022-11-05T17:31:07.684Z,12.35
2022-11-05T17:33:58.655Z,12.05
2022-11-05T17:36:45.979Z,9.13
2022-11-05T17:39:33.817Z,8.20
2022-11-05T17:42:21.220Z,8.98
2022-11-05T17:45:09.711Z,8.45
2022-11-05T17:47:57.168Z,7.93
2022-11-05T17:50:47.299Z,8.68
2022-11-05T17:53:35.794Z,10.60
2022-11-05T17:56:33.437Z,11.45
2022-11-05T17:59:21.037Z,9.07
2022-11-05T18:02:12.300Z,8.73
2022-11-05T18:04:59.699Z,8.23
2022-11-05T18:07:47.747Z,9.27
2022-11-05T18:10:40.562Z,9.00
2022-11-05T18:13:27.908Z,11.45
2022-11-05T18:16:15.473Z,9.90
2022-11-05T18:19:04.430Z,9.60
2022-11-05T18:21:53.491Z,9.73
2022-11-05T18:24:40.934Z,9.77
2022-11-05T18:27:28.244Z,8.77
2022-11-05T18:30:15.976Z,9.70
2022-11-05T18:33:03.756Z,9.85
2022-11-05T18:35:52.297Z,10.85
2022-11-05T18:38:39.680Z,10.98
2022-11-05T18:41:27.878Z,10.40
2022-11-05T18:44:16.733Z,8.73
2022-11-05T18:47:05.804Z,9.95
2022-11-05T18:49:53.390Z,10.50
2022-11-05T18:52:40.634Z,10.00
2022-11-05T18:55:28.051Z,10.45
2022-11-05T18:58:15.680Z,10.55
2022-11-05T19:01:06.576Z,10.48
2022-11-05T19:03:54.793Z,10.00
2022-11-05T19:06:42.606Z,10.52
2022-11-05T19:09:29.931Z,10.32
2022-11-05T19:12:17.493Z,9.77
2022-11-05T19:15:05.531Z,10.63
2022-11-05T19:17:53.160Z,10.68
2022-11-05T19:20:40.701Z,17.02
2022-11-05T19:23:28.180Z,14.98
2022-11-05T19:26:19.473Z,16.08
2022-11-05T19:29:09.229Z,18.42
2022-11-05T19:31:56.521Z,12.25
2022-11-05T19:34:43.822Z,12.20
2022-11-05T19:37:31.352Z,12.98
2022-11-05T19:40:19.337Z,17.65
2022-11-05T19:43:07.166Z,15.40
2022-11-05T19:45:54.475Z,18.65
2022-11-05T19:48:42.858Z,16.33
2022-11-05T19:51:31.728Z,11.07
2022-11-05T19:54:19.039Z,16.23
2022-11-05T19:57:06.517Z,12.25
2022-11-05T19:59:53.847Z,9.68
2022-11-05T20:02:45.921Z,13.45
2022-11-05T20:05:34.054Z,17.48
2022-11-05T20:08:21.354Z,12.90
2022-11-05T20:11:09.075Z,15.95
2022-11-05T20:13:56.919Z,9.48
2022-11-05T20:16:45.968Z,13.90
2022-11-05T20:19:33.837Z,12.02
2022-11-05T20:22:22.697Z,15.15
2022-11-05T20:25:10.916Z,11.90
2022-11-05T20:27:58.220Z,9.85
2022-11-05T20:30:45.578Z,10.57
2022-11-05T20:33:32.879Z,12.93
2022-11-05T20:36:22.541Z,12.52
2022-11-05T20:39:12.311Z,12.63
2022-11-05T20:42:00.666Z,14.90
2022-11-05T20:44:48.159Z,7.68
2022-11-05T20:47:35.574Z,7.85
2022-11-05T20:50:22.870Z,16.80
2022-11-05T20:53:11.665Z,10.23
2022-11-05T20:56:02.402Z,24.08
2022-11-05T20:58:53.583Z,10.55
2022-11-05T21:01:41.089Z,17.67
2022-11-05T21:04:28.631Z,12.35
2022-11-05T21:07:15.998Z,22.45
2022-11-05T21:10:04.033Z,9.65
2022-11-05T21:12:51.356Z,11.77
2022-11-05T21:15:38.651Z,17.02
2022-11-05T21:18:31.076Z,10.85
2022-11-05T21:21:20.479Z,13.48
2022-11-05T21:24:08.105Z,8.45
2022-11-05T21:26:56.038Z,11.18
2022-11-05T21:29:43.339Z,15.30
2022-11-05T21:32:30.654Z,11.82
2022-11-05T21:35:17.877Z,10.30
2022-11-05T21:38:05.496Z,9.35
2022-11-05T21:40:52.775Z,7.65
2022-11-05T21:43:42.028Z,14.77
2022-11-05T21:46:29.482Z,17.42
2022-11-05T21:49:16.808Z,28.77
2022-11-05T21:52:23.265Z,9.80
2022-11-05T21:55:30.587Z,14.65
2022-11-05T21:58:36.463Z,9.30
2022-11-05T22:01:23.878Z,13.05
2022-11-05T22:04:11.220Z,8.85
2022-11-05T22:06:59.151Z,18.40
2022-11-05T22:09:46.950Z,14.00
2022-11-05T22:12:34.277Z,15.80
2022-11-05T22:15:21.830Z,10.02
2022-11-05T22:18:09.222Z,9.75
2022-11-05T22:20:56.629Z,10.55
2022-11-05T22:23:44.628Z,9.52
2022-11-05T22:26:31.981Z,11.63
2022-11-05T22:29:19.750Z,12.57
2022-11-05T22:32:07.405Z,6.38
2022-11-05T22:34:55.020Z,8.57
2022-11-05T22:37:42.483Z,7.30
2022-11-05T22:40:29.793Z,13.05
2022-11-05T22:43:17.445Z,15.98
2022-11-05T22:46:10.628Z,12.18
2022-11-05T22:48:59.908Z,11.93
2022-11-05T22:51:47.391Z,12.63
2022-11-05T22:54:39.001Z,15.38
2022-11-05T23:00:17.279Z,12.80
2022-11-05T23:03:04.712Z,10.63
2022-11-05T23:06:01.408Z,23.38
2022-11-05T23:09:07.314Z,24.48
2022-11-05T23:11:54.669Z,17.05
2022-11-05T23:14:41.934Z,5.95
2022-11-05T23:17:47.809Z,7.93
2022-11-05T23:20:53.692Z,9.60
2022-11-05T23:23:59.226Z,16.98
2022-11-05T23:26:52.213Z,9.93
2022-11-05T23:29:39.576Z,8.68
2022-11-05T23:32:28.495Z,10.50
2022-11-05T23:35:16.357Z,8.10
2022-11-05T23:38:22.309Z,5.88
2022-11-05T23:41:27.900Z,8.73
2022-11-05T23:44:33.922Z,5.85
2022-11-05T23:47:39.610Z,5.00
2022-11-05T23:50:27.369Z,5.10
2022-11-05T23:53:14.760Z,6.57
2022-11-05T23:56:11.687Z,6.00
2022-11-05T23:58:58.960Z,13.85
